sensor_id;sensor_type;location;lat;lon;timestamp;noise_LAeq;noise_LA_min;noise_LA_max;noise_LA01;noise_LA95
11999;Laerm;40817;51.520;9.954;2023-01-10T00:01:38;43.25;40.03;58.34;;
11999;Laerm;40817;51.520;9.954;2023-01-10T00:04:05;43.85;40.33;58.58;;
11999;Laerm;40817;51.520;9.954;2023-01-10T00:06:34;43.17;40.03;45.46;;
11999;Laerm;40817;51.520;9.954;2023-01-10T00:09:03;43.55;40.13;58.25;;
11999;Laerm;40817;51.520;9.954;2023-01-10T00:11:31;43.22;39.70;63.63;;
11999;Laerm;40817;51.520;9.954;2023-01-10T00:14:16;44.08;40.43;49.87;;
11999;Laerm;40817;51.520;9.954;2023-01-10T00:16:44;44.05;40.62;58.00;;
11999;Laerm;40817;51.520;9.954;2023-01-10T00:19:12;43.33;40.08;45.20;;
11999;Laerm;40817;51.520;9.954;2023-01-10T00:21:40;43.70;39.21;57.30;;
11999;Laerm;40817;51.520;9.954;2023-01-10T00:24:10;42.97;39.70;58.23;;
11999;Laerm;40817;51.520;9.954;2023-01-10T00:26:47;43.52;40.18;60.35;;
11999;Laerm;40817;51.520;9.954;2023-01-10T00:29:18;43.38;39.92;58.47;;
11999;Laerm;40817;51.520;9.954;2023-01-10T00:31:47;42.60;39.21;44.54;;
11999;Laerm;40817;51.520;9.954;2023-01-10T00:34:15;42.53;39.08;56.49;;
11999;Laerm;40817;51.520;9.954;2023-01-10T00:36:43;43.20;39.68;66.21;;
11999;Laerm;40817;51.520;9.954;2023-01-10T00:39:13;42.21;38.67;44.69;;
11999;Laerm;40817;51.520;9.954;2023-01-10T00:41:41;42.69;39.08;57.39;;
11999;Laerm;40817;51.520;9.954;2023-01-10T00:44:26;43.53;37.70;69.81;;
11999;Laerm;40817;51.520;9.954;2023-01-10T00:46:54;42.80;39.34;59.54;;
11999;Laerm;40817;51.520;9.954;2023-01-10T00:49:22;43.20;39.46;57.84;;
11999;Laerm;40817;51.520;9.954;2023-01-10T00:51:49;43.03;39.21;55.82;;
11999;Laerm;40817;51.520;9.954;2023-01-10T00:54:18;42.84;39.68;58.13;;
11999;Laerm;40817;51.520;9.954;2023-01-10T00:56:46;42.58;38.37;62.86;;
11999;Laerm;40817;51.520;9.954;2023-01-10T00:59:13;42.54;38.81;58.09;;
11999;Laerm;40817;51.520;9.954;2023-01-10T01:01:41;42.25;38.81;58.13;;
11999;Laerm;40817;51.520;9.954;2023-01-10T01:04:09;42.41;38.52;49.29;;
11999;Laerm;40817;51.520;9.954;2023-01-10T01:06:36;43.50;39.46;63.29;;
11999;Laerm;40817;51.520;9.954;2023-01-10T01:09:04;42.99;38.95;56.67;;
11999;Laerm;40817;51.520;9.954;2023-01-10T01:11:34;42.18;38.81;44.31;;
11999;Laerm;40817;51.520;9.954;2023-01-10T01:14:02;42.50;39.21;57.00;;
11999;Laerm;40817;51.520;9.954;2023-01-10T01:16:29;42.99;39.70;48.26;;
11999;Laerm;40817;51.520;9.954;2023-01-10T01:18:57;44.04;39.21;70.27;;
11999;Laerm;40817;51.520;9.954;2023-01-10T01:21:25;42.68;38.67;50.15;;
11999;Laerm;40817;51.520;9.954;2023-01-10T01:23:53;42.77;39.58;51.02;;
11999;Laerm;40817;51.520;9.954;2023-01-10T01:26:22;43.21;38.52;65.26;;
11999;Laerm;40817;51.520;9.954;2023-01-10T01:28:52;43.35;40.33;48.25;;
11999;Laerm;40817;51.520;9.954;2023-01-10T01:31:20;44.24;40.53;52.72;;
11999;Laerm;40817;51.520;9.954;2023-01-10T01:33:47;45.90;39.92;61.86;;
11999;Laerm;40817;51.520;9.954;2023-01-10T01:36:16;43.32;39.70;45.67;;
11999;Laerm;40817;51.520;9.954;2023-01-10T01:38:45;43.05;39.21;66.51;;
11999;Laerm;40817;51.520;9.954;2023-01-10T01:41:13;43.44;40.13;49.97;;
11999;Laerm;40817;51.520;9.954;2023-01-10T01:44:04;42.84;39.34;46.87;;
11999;Laerm;40817;51.520;9.954;2023-01-10T01:46:33;43.05;39.57;45.72;;
11999;Laerm;40817;51.520;9.954;2023-01-10T01:49:03;42.68;38.81;66.86;;
11999;Laerm;40817;51.520;9.954;2023-01-10T01:51:35;42.20;38.37;45.14;;
11999;Laerm;40817;51.520;9.954;2023-01-10T01:54:07;42.48;38.81;55.15;;
11999;Laerm;40817;51.520;9.954;2023-01-10T01:56:41;42.52;38.67;60.78;;
11999;Laerm;40817;51.520;9.954;2023-01-10T01:59:16;42.24;38.37;48.81;;
11999;Laerm;40817;51.520;9.954;2023-01-10T02:01:51;42.48;38.37;44.54;;
11999;Laerm;40817;51.520;9.954;2023-01-10T02:04:27;42.99;39.78;65.88;;
11999;Laerm;40817;51.520;9.954;2023-01-10T02:06:58;42.61;39.70;44.87;;
11999;Laerm;40817;51.520;9.954;2023-01-10T02:09:32;42.77;38.81;53.93;;
11999;Laerm;40817;51.520;9.954;2023-01-10T02:12:02;43.58;39.46;71.56;;
11999;Laerm;40817;51.520;9.954;2023-01-10T02:14:31;42.20;38.37;44.43;;
11999;Laerm;40817;51.520;9.954;2023-01-10T02:17:00;42.19;38.52;44.80;;
11999;Laerm;40817;51.520;9.954;2023-01-10T02:19:39;43.46;38.52;67.95;;
11999;Laerm;40817;51.520;9.954;2023-01-10T02:23:31;48.42;39.81;63.51;;
11999;Laerm;40817;51.520;9.954;2023-01-10T02:26:49;42.10;38.37;48.32;;
11999;Laerm;40817;51.520;9.954;2023-01-10T02:33:15;42.18;38.21;44.47;;
11999;Laerm;40817;51.520;9.954;2023-01-10T02:36:08;42.75;39.70;60.90;;
11999;Laerm;40817;51.520;9.954;2023-01-10T02:38:56;42.75;38.81;65.61;;
11999;Laerm;40817;51.520;9.954;2023-01-10T02:41:32;44.45;39.70;54.40;;
11999;Laerm;40817;51.520;9.954;2023-01-10T02:44:07;42.75;38.52;45.33;;
11999;Laerm;40817;51.520;9.954;2023-01-10T02:46:38;42.55;39.08;47.62;;
11999;Laerm;40817;51.520;9.954;2023-01-10T02:49:08;42.68;39.46;44.97;;
11999;Laerm;40817;51.520;9.954;2023-01-10T02:51:35;42.54;39.46;44.83;;
11999;Laerm;40817;51.520;9.954;2023-01-10T02:54:09;52.92;40.71;74.86;;
11999;Laerm;40817;51.520;9.954;2023-01-10T02:57:22;49.23;39.58;70.22;;
11999;Laerm;40817;51.520;9.954;2023-01-10T03:00:34;44.39;39.81;68.11;;
11999;Laerm;40817;51.520;9.954;2023-01-10T03:03:22;43.91;39.08;65.42;;
11999;Laerm;40817;51.520;9.954;2023-01-10T03:06:21;43.97;39.70;70.19;;
11999;Laerm;40817;51.520;9.954;2023-01-10T03:08:55;44.37;39.58;63.34;;
11999;Laerm;40817;51.520;9.954;2023-01-10T03:11:28;46.06;39.34;65.34;;
11999;Laerm;40817;51.520;9.954;2023-01-10T03:14:13;52.16;40.80;72.55;;
11999;Laerm;40817;51.520;9.954;2023-01-10T03:16:51;53.42;42.59;72.35;;
11999;Laerm;40817;51.520;9.954;2023-01-10T03:19:25;49.96;39.81;71.67;;
11999;Laerm;40817;51.520;9.954;2023-01-10T03:22:00;48.45;40.36;71.69;;
11999;Laerm;40817;51.520;9.954;2023-01-10T03:24:34;51.54;41.30;72.57;;
11999;Laerm;40817;51.520;9.954;2023-01-10T03:27:09;55.57;42.53;75.10;;
11999;Laerm;40817;51.520;9.954;2023-01-10T03:29:50;54.26;41.14;75.39;;
11999;Laerm;40817;51.520;9.954;2023-01-10T03:32:26;53.26;41.53;74.40;;
11999;Laerm;40817;51.520;9.954;2023-01-10T03:34:55;54.21;40.13;73.52;;
11999;Laerm;40817;51.520;9.954;2023-01-10T03:37:34;50.78;40.23;73.21;;
11999;Laerm;40817;51.520;9.954;2023-01-10T03:40:13;52.63;40.13;71.75;;
11999;Laerm;40817;51.520;9.954;2023-01-10T03:42:52;51.13;40.43;74.50;;
11999;Laerm;40817;51.520;9.954;2023-01-10T03:45:46;48.32;40.71;69.96;;
11999;Laerm;40817;51.520;9.954;2023-01-10T03:48:16;47.07;40.62;74.36;;
11999;Laerm;40817;51.520;9.954;2023-01-10T03:50:45;45.98;39.70;68.43;;
11999;Laerm;40817;51.520;9.954;2023-01-10T03:53:15;46.27;40.23;71.96;;
11999;Laerm;40817;51.520;9.954;2023-01-10T03:55:43;44.19;40.03;67.58;;
11999;Laerm;40817;51.520;9.954;2023-01-10T03:58:11;44.26;36.98;67.97;;
11999;Laerm;40817;51.520;9.954;2023-01-10T04:00:39;45.07;39.92;72.36;;
11999;Laerm;40817;51.520;9.954;2023-01-10T04:03:07;44.27;39.92;67.52;;
11999;Laerm;40817;51.520;9.954;2023-01-10T04:05:56;48.13;40.43;67.55;;
11999;Laerm;40817;51.520;9.954;2023-01-10T04:08:44;43.96;39.92;67.78;;
11999;Laerm;40817;51.520;9.954;2023-01-10T04:11:31;47.77;39.81;67.20;;
11999;Laerm;40817;51.520;9.954;2023-01-10T04:13:59;44.06;40.53;67.04;;
11999;Laerm;40817;51.520;9.954;2023-01-10T04:16:27;44.01;41.06;67.38;;
11999;Laerm;40817;51.520;9.954;2023-01-10T04:18:54;44.81;40.98;66.92;;
11999;Laerm;40817;51.520;9.954;2023-01-10T04:21:22;44.51;40.23;67.24;;
11999;Laerm;40817;51.520;9.954;2023-01-10T04:23:51;44.21;40.80;66.93;;
11999;Laerm;40817;51.520;9.954;2023-01-10T04:26:19;43.97;40.89;63.57;;
11999;Laerm;40817;51.520;9.954;2023-01-10T04:28:47;44.14;40.03;66.74;;
11999;Laerm;40817;51.520;9.954;2023-01-10T04:31:14;44.20;40.13;67.27;;
11999;Laerm;40817;51.520;9.954;2023-01-10T04:33:42;44.67;40.53;69.58;;
11999;Laerm;40817;51.520;9.954;2023-01-10T04:36:09;44.14;40.79;66.16;;
11999;Laerm;40817;51.520;9.954;2023-01-10T04:38:37;43.81;40.89;58.30;;
11999;Laerm;40817;51.520;9.954;2023-01-10T04:41:06;44.31;40.89;67.59;;
11999;Laerm;40817;51.520;9.954;2023-01-10T04:43:33;43.91;41.06;67.04;;
11999;Laerm;40817;51.520;9.954;2023-01-10T04:46:01;43.48;40.79;57.60;;
11999;Laerm;40817;51.520;9.954;2023-01-10T04:48:29;44.41;41.30;66.43;;
11999;Laerm;40817;51.520;9.954;2023-01-10T04:50:57;43.66;40.96;61.85;;
11999;Laerm;40817;51.520;9.954;2023-01-10T04:53:24;44.09;40.71;66.85;;
11999;Laerm;40817;51.520;9.954;2023-01-10T04:55:52;44.22;40.62;66.58;;
11999;Laerm;40817;51.520;9.954;2023-01-10T04:58:21;44.32;41.38;60.65;;
11999;Laerm;40817;51.520;9.954;2023-01-10T05:00:48;44.10;40.89;65.42;;
11999;Laerm;40817;51.520;9.954;2023-01-10T05:03:27;43.82;40.43;56.41;;
11999;Laerm;40817;51.520;9.954;2023-01-10T05:05:57;44.26;41.06;57.75;;
11999;Laerm;40817;51.520;9.954;2023-01-10T05:08:25;44.40;40.71;66.09;;
11999;Laerm;40817;51.520;9.954;2023-01-10T05:10:53;43.86;41.22;57.57;;
11999;Laerm;40817;51.520;9.954;2023-01-10T05:13:22;44.47;41.38;67.62;;
11999;Laerm;40817;51.520;9.954;2023-01-10T05:15:53;44.33;41.46;63.76;;
11999;Laerm;40817;51.520;9.954;2023-01-10T05:18:21;44.52;40.80;66.94;;
11999;Laerm;40817;51.520;9.954;2023-01-10T05:20:49;44.68;41.14;67.10;;
11999;Laerm;40817;51.520;9.954;2023-01-10T05:23:17;44.28;41.06;66.15;;
11999;Laerm;40817;51.520;9.954;2023-01-10T05:25:45;44.15;41.46;46.80;;
11999;Laerm;40817;51.520;9.954;2023-01-10T05:28:13;44.65;41.22;66.52;;
11999;Laerm;40817;51.520;9.954;2023-01-10T05:30:42;44.47;41.30;66.62;;
11999;Laerm;40817;51.520;9.954;2023-01-10T05:33:10;44.43;41.75;66.41;;
11999;Laerm;40817;51.520;9.954;2023-01-10T05:35:38;44.40;41.75;64.74;;
11999;Laerm;40817;51.520;9.954;2023-01-10T05:38:06;43.74;41.22;48.91;;
11999;Laerm;40817;51.520;9.954;2023-01-10T05:40:34;43.99;40.71;66.52;;
11999;Laerm;40817;51.520;9.954;2023-01-10T05:43:02;43.96;40.71;58.41;;
11999;Laerm;40817;51.520;9.954;2023-01-10T05:45:29;44.14;40.89;66.52;;
11999;Laerm;40817;51.520;9.954;2023-01-10T05:47:58;43.81;40.98;45.86;;
11999;Laerm;40817;51.520;9.954;2023-01-10T05:50:26;43.56;40.33;46.05;;
11999;Laerm;40817;51.520;9.954;2023-01-10T05:52:54;43.85;40.98;66.55;;
11999;Laerm;40817;51.520;9.954;2023-01-10T05:55:23;43.93;40.13;58.04;;
11999;Laerm;40817;51.520;9.954;2023-01-10T05:57:51;44.31;40.71;66.20;;
11999;Laerm;40817;51.520;9.954;2023-01-10T06:00:20;44.05;40.89;47.61;;
11999;Laerm;40817;51.520;9.954;2023-01-10T06:02:48;44.18;41.14;53.39;;
11999;Laerm;40817;51.520;9.954;2023-01-10T06:05:17;44.46;41.53;57.69;;
11999;Laerm;40817;51.520;9.954;2023-01-10T06:07:45;44.28;41.89;52.53;;
11999;Laerm;40817;51.520;9.954;2023-01-10T06:10:13;46.60;41.75;62.26;;
11999;Laerm;40817;51.520;9.954;2023-01-10T06:12:41;46.42;41.30;67.89;;
11999;Laerm;40817;51.520;9.954;2023-01-10T06:15:10;45.15;40.53;67.74;;
11999;Laerm;40817;51.520;9.954;2023-01-10T06:17:38;44.51;40.33;67.34;;
11999;Laerm;40817;51.520;9.954;2023-01-10T06:20:07;44.20;41.14;51.29;;
11999;Laerm;40817;51.520;9.954;2023-01-10T06:22:39;44.64;41.89;55.93;;
11999;Laerm;40817;51.520;9.954;2023-01-10T06:25:10;45.20;41.30;67.65;;
11999;Laerm;40817;51.520;9.954;2023-01-10T06:27:40;45.21;41.75;66.89;;
11999;Laerm;40817;51.520;9.954;2023-01-10T06:30:12;44.82;42.22;51.74;;
11999;Laerm;40817;51.520;9.954;2023-01-10T06:32:40;44.76;42.41;59.17;;
11999;Laerm;40817;51.520;9.954;2023-01-10T06:35:09;45.38;42.16;67.60;;
11999;Laerm;40817;51.520;9.954;2023-01-10T06:37:38;44.86;41.89;61.16;;
11999;Laerm;40817;51.520;9.954;2023-01-10T06:40:08;44.49;42.22;48.12;;
11999;Laerm;40817;51.520;9.954;2023-01-10T06:42:36;44.59;42.29;50.54;;
11999;Laerm;40817;51.520;9.954;2023-01-10T06:45:05;44.46;41.61;60.21;;
11999;Laerm;40817;51.520;9.954;2023-01-10T06:47:33;44.48;41.96;63.29;;
11999;Laerm;40817;51.520;9.954;2023-01-10T06:50:01;44.76;41.82;52.58;;
11999;Laerm;40817;51.520;9.954;2023-01-10T06:52:28;44.37;41.06;54.40;;
11999;Laerm;40817;51.520;9.954;2023-01-10T06:55:11;44.86;41.46;64.56;;
11999;Laerm;40817;51.520;9.954;2023-01-10T06:57:39;44.62;41.61;55.12;;
11999;Laerm;40817;51.520;9.954;2023-01-10T07:00:09;49.20;41.22;69.34;;
11999;Laerm;40817;51.520;9.954;2023-01-10T07:02:37;44.90;38.52;53.63;;
11999;Laerm;40817;51.520;9.954;2023-01-10T07:05:06;44.36;41.89;61.49;;
11999;Laerm;40817;51.520;9.954;2023-01-10T07:07:34;44.76;40.62;59.85;;
11999;Laerm;40817;51.520;9.954;2023-01-10T07:10:02;44.55;41.68;61.75;;
11999;Laerm;40817;51.520;9.954;2023-01-10T07:12:31;44.76;41.30;56.25;;
11999;Laerm;40817;51.520;9.954;2023-01-10T07:14:59;44.57;41.22;62.64;;
11999;Laerm;40817;51.520;9.954;2023-01-10T07:17:28;44.60;42.29;53.66;;
11999;Laerm;40817;51.520;9.954;2023-01-10T07:19:55;45.27;40.53;63.75;;
11999;Laerm;40817;51.520;9.954;2023-01-10T07:22:23;44.71;40.98;51.03;;
11999;Laerm;40817;51.520;9.954;2023-01-10T07:24:51;44.78;42.03;67.08;;
11999;Laerm;40817;51.520;9.954;2023-01-10T07:27:20;44.55;41.38;55.15;;
11999;Laerm;40817;51.520;9.954;2023-01-10T07:29:48;59.80;41.30;76.82;;
11999;Laerm;40817;51.520;9.954;2023-01-10T07:32:16;45.02;41.06;66.79;;
11999;Laerm;40817;51.520;9.954;2023-01-10T07:34:44;44.86;42.29;67.43;;
11999;Laerm;40817;51.520;9.954;2023-01-10T07:37:11;44.98;42.29;56.48;;
11999;Laerm;40817;51.520;9.954;2023-01-10T07:39:39;45.16;41.53;67.40;;
11999;Laerm;40817;51.520;9.954;2023-01-10T07:42:08;46.04;43.19;66.71;;
11999;Laerm;40817;51.520;9.954;2023-01-10T07:44:36;45.93;43.09;65.40;;
11999;Laerm;40817;51.520;9.954;2023-01-10T07:47:05;45.45;42.59;52.54;;
11999;Laerm;40817;51.520;9.954;2023-01-10T07:49:32;44.96;42.47;59.13;;
11999;Laerm;40817;51.520;9.954;2023-01-10T07:52:00;48.67;42.71;62.78;;
11999;Laerm;40817;51.520;9.954;2023-01-10T07:54:28;45.45;41.53;66.96;;
11999;Laerm;40817;51.520;9.954;2023-01-10T07:56:55;44.71;42.41;47.93;;
11999;Laerm;40817;51.520;9.954;2023-01-10T07:59:23;44.87;42.59;52.19;;
11999;Laerm;40817;51.520;9.954;2023-01-10T08:01:51;44.93;42.35;55.01;;
11999;Laerm;40817;51.520;9.954;2023-01-10T08:04:20;45.23;42.41;64.89;;
11999;Laerm;40817;51.520;9.954;2023-01-10T08:06:48;44.70;42.00;53.79;;
11999;Laerm;40817;51.520;9.954;2023-01-10T08:09:16;45.77;42.59;58.82;;
11999;Laerm;40817;51.520;9.954;2023-01-10T08:11:44;45.45;41.96;65.90;;
11999;Laerm;40817;51.520;9.954;2023-01-10T08:14:11;44.55;42.09;64.03;;
11999;Laerm;40817;51.520;9.954;2023-01-10T08:16:39;44.78;41.82;50.05;;
11999;Laerm;40817;51.520;9.954;2023-01-10T08:19:06;45.41;42.41;55.84;;
11999;Laerm;40817;51.520;9.954;2023-01-10T08:21:35;45.04;42.41;57.07;;
11999;Laerm;40817;51.520;9.954;2023-01-10T08:24:04;45.55;42.09;57.20;;
11999;Laerm;40817;51.520;9.954;2023-01-10T08:26:31;45.24;42.59;66.05;;
11999;Laerm;40817;51.520;9.954;2023-01-10T08:29:00;45.51;42.53;54.65;;
11999;Laerm;40817;51.520;9.954;2023-01-10T08:31:28;48.01;42.35;66.90;;
11999;Laerm;40817;51.520;9.954;2023-01-10T08:33:55;45.13;42.03;57.62;;
11999;Laerm;40817;51.520;9.954;2023-01-10T08:36:23;44.73;41.82;56.34;;
11999;Laerm;40817;51.520;9.954;2023-01-10T08:38:54;45.05;42.35;65.95;;
11999;Laerm;40817;51.520;9.954;2023-01-10T08:41:22;44.84;41.96;55.67;;
11999;Laerm;40817;51.520;9.954;2023-01-10T08:43:50;44.69;41.75;55.88;;
11999;Laerm;40817;51.520;9.954;2023-01-10T08:46:18;44.97;41.22;52.76;;
11999;Laerm;40817;51.520;9.954;2023-01-10T08:48:46;46.00;43.39;53.21;;
11999;Laerm;40817;51.520;9.954;2023-01-10T08:51:16;45.28;42.59;50.91;;
11999;Laerm;40817;51.520;9.954;2023-01-10T08:53:44;45.67;42.22;64.17;;
11999;Laerm;40817;51.520;9.954;2023-01-10T08:56:13;44.64;41.75;51.17;;
11999;Laerm;40817;51.520;9.954;2023-01-10T08:58:40;44.21;41.75;48.57;;
11999;Laerm;40817;51.520;9.954;2023-01-10T09:01:09;45.37;41.89;60.25;;
11999;Laerm;40817;51.520;9.954;2023-01-10T09:03:38;46.25;42.36;60.75;;
11999;Laerm;40817;51.520;9.954;2023-01-10T09:06:06;44.39;42.16;49.41;;
11999;Laerm;40817;51.520;9.954;2023-01-10T09:08:35;44.35;41.46;50.25;;
11999;Laerm;40817;51.520;9.954;2023-01-10T09:11:03;44.50;41.48;56.97;;
11999;Laerm;40817;51.520;9.954;2023-01-10T09:13:33;44.72;41.30;67.25;;
11999;Laerm;40817;51.520;9.954;2023-01-10T09:16:00;48.02;42.22;66.19;;
11999;Laerm;40817;51.520;9.954;2023-01-10T09:18:28;48.61;41.38;65.81;;
11999;Laerm;40817;51.520;9.954;2023-01-10T09:20:56;48.82;41.82;66.01;;
11999;Laerm;40817;51.520;9.954;2023-01-10T09:23:23;44.61;41.75;49.21;;
11999;Laerm;40817;51.520;9.954;2023-01-10T09:25:54;44.59;40.89;53.76;;
11999;Laerm;40817;51.520;9.954;2023-01-10T09:28:23;44.54;41.61;67.19;;
11999;Laerm;40817;51.520;9.954;2023-01-10T09:30:52;44.66;41.89;55.16;;
11999;Laerm;40817;51.520;9.954;2023-01-10T09:33:19;45.84;41.30;59.22;;
11999;Laerm;40817;51.520;9.954;2023-01-10T09:35:47;45.69;41.61;64.65;;
11999;Laerm;40817;51.520;9.954;2023-01-10T09:38:17;48.30;42.88;72.12;;
11999;Laerm;40817;51.520;9.954;2023-01-10T09:41:14;51.18;41.68;73.29;;
11999;Laerm;40817;51.520;9.954;2023-01-10T09:44:00;45.01;41.75;55.71;;
11999;Laerm;40817;51.520;9.954;2023-01-10T09:46:43;45.21;41.75;57.37;;
11999;Laerm;40817;51.520;9.954;2023-01-10T09:49:30;44.27;40.89;51.11;;
11999;Laerm;40817;51.520;9.954;2023-01-10T09:52:01;46.60;40.89;59.14;;
11999;Laerm;40817;51.520;9.954;2023-01-10T09:54:38;46.34;42.00;59.72;;
11999;Laerm;40817;51.520;9.954;2023-01-10T09:57:15;44.90;41.14;66.84;;
11999;Laerm;40817;51.520;9.954;2023-01-10T09:59:44;58.01;41.14;71.79;;
11999;Laerm;40817;51.520;9.954;2023-01-10T10:02:25;50.95;42.09;66.07;;
11999;Laerm;40817;51.520;9.954;2023-01-10T10:05:07;44.59;41.22;57.83;;
11999;Laerm;40817;51.520;9.954;2023-01-10T10:07:36;44.14;41.96;48.48;;
11999;Laerm;40817;51.520;9.954;2023-01-10T10:10:06;44.30;41.68;51.81;;
11999;Laerm;40817;51.520;9.954;2023-01-10T10:12:45;45.13;42.06;54.93;;
11999;Laerm;40817;51.520;9.954;2023-01-10T10:15:26;44.69;41.46;50.05;;
11999;Laerm;40817;51.520;9.954;2023-01-10T10:18:12;44.38;41.61;60.84;;
11999;Laerm;40817;51.520;9.954;2023-01-10T10:20:56;44.33;41.68;57.05;;
11999;Laerm;40817;51.520;9.954;2023-01-10T10:24:00;44.08;41.53;53.79;;
11999;Laerm;40817;51.520;9.954;2023-01-10T10:26:35;44.22;41.53;55.92;;
11999;Laerm;40817;51.520;9.954;2023-01-10T10:29:49;43.89;41.11;52.48;;
11999;Laerm;40817;51.520;9.954;2023-01-10T10:32:44;43.95;41.14;55.96;;
11999;Laerm;40817;51.520;9.954;2023-01-10T10:35:22;44.75;42.09;53.64;;
11999;Laerm;40817;51.520;9.954;2023-01-10T10:37:56;44.66;41.22;57.51;;
11999;Laerm;40817;51.520;9.954;2023-01-10T10:40:31;44.31;41.53;53.11;;
11999;Laerm;40817;51.520;9.954;2023-01-10T10:43:14;43.79;40.62;46.82;;
11999;Laerm;40817;51.520;9.954;2023-01-10T10:45:50;43.83;40.43;46.93;;
11999;Laerm;40817;51.520;9.954;2023-01-10T10:48:26;43.91;40.43;55.23;;
11999;Laerm;40817;51.520;9.954;2023-01-10T10:51:04;44.24;41.89;50.97;;
11999;Laerm;40817;51.520;9.954;2023-01-10T10:53:34;46.31;41.14;63.52;;
11999;Laerm;40817;51.520;9.954;2023-01-10T10:56:06;45.58;41.82;60.37;;
11999;Laerm;40817;51.520;9.954;2023-01-10T10:58:39;44.06;41.46;53.63;;
11999;Laerm;40817;51.520;9.954;2023-01-10T11:01:12;51.56;41.68;64.31;;
11999;Laerm;40817;51.520;9.954;2023-01-10T11:03:45;51.24;41.33;61.92;;
11999;Laerm;40817;51.520;9.954;2023-01-10T11:06:16;43.93;40.98;50.21;;
11999;Laerm;40817;51.520;9.954;2023-01-10T11:08:49;45.95;41.30;72.69;;
11999;Laerm;40817;51.520;9.954;2023-01-10T11:11:23;43.98;41.30;47.16;;
11999;Laerm;40817;51.520;9.954;2023-01-10T11:13:56;44.73;41.30;56.37;;
11999;Laerm;40817;51.520;9.954;2023-01-10T11:16:30;45.16;41.82;63.72;;
11999;Laerm;40817;51.520;9.954;2023-01-10T11:19:20;47.86;42.03;63.97;;
11999;Laerm;40817;51.520;9.954;2023-01-10T11:21:55;44.91;41.61;60.60;;
11999;Laerm;40817;51.520;9.954;2023-01-10T11:24:28;47.40;42.41;58.89;;
11999;Laerm;40817;51.520;9.954;2023-01-10T11:27:00;45.63;40.71;68.70;;
11999;Laerm;40817;51.520;9.954;2023-01-10T11:29:37;43.84;41.38;56.71;;
11999;Laerm;40817;51.520;9.954;2023-01-10T11:32:12;44.00;40.98;67.05;;
11999;Laerm;40817;51.520;9.954;2023-01-10T11:34:48;43.93;40.80;50.11;;
11999;Laerm;40817;51.520;9.954;2023-01-10T11:37:24;43.58;40.13;51.35;;
11999;Laerm;40817;51.520;9.954;2023-01-10T11:40:21;43.63;40.13;46.84;;
11999;Laerm;40817;51.520;9.954;2023-01-10T11:42:54;43.90;41.30;52.47;;
11999;Laerm;40817;51.520;9.954;2023-01-10T11:45:31;44.32;41.14;56.09;;
11999;Laerm;40817;51.520;9.954;2023-01-10T11:48:07;47.77;41.68;62.72;;
11999;Laerm;40817;51.520;9.954;2023-01-10T11:50:38;44.93;41.75;59.13;;
11999;Laerm;40817;51.520;9.954;2023-01-10T11:53:35;44.38;42.03;53.60;;
11999;Laerm;40817;51.520;9.954;2023-01-10T11:56:06;44.34;41.46;54.25;;
11999;Laerm;40817;51.520;9.954;2023-01-10T11:58:37;43.77;41.22;51.08;;
11999;Laerm;40817;51.520;9.954;2023-01-10T12:01:05;43.96;41.30;50.55;;
11999;Laerm;40817;51.520;9.954;2023-01-10T12:03:36;43.86;41.46;50.54;;
11999;Laerm;40817;51.520;9.954;2023-01-10T12:06:13;44.33;41.30;52.21;;
11999;Laerm;40817;51.520;9.954;2023-01-10T12:08:43;44.52;42.16;49.93;;
11999;Laerm;40817;51.520;9.954;2023-01-10T12:11:26;44.15;41.68;53.04;;
11999;Laerm;40817;51.520;9.954;2023-01-10T12:13:58;45.81;41.14;59.87;;
11999;Laerm;40817;51.520;9.954;2023-01-10T12:16:29;45.41;41.33;54.25;;
11999;Laerm;40817;51.520;9.954;2023-01-10T12:19:00;49.88;41.75;69.31;;
11999;Laerm;40817;51.520;9.954;2023-01-10T12:21:36;44.90;41.75;54.38;;
11999;Laerm;40817;51.520;9.954;2023-01-10T12:24:14;43.87;41.06;48.57;;
11999;Laerm;40817;51.520;9.954;2023-01-10T12:26:45;44.20;40.89;62.31;;
11999;Laerm;40817;51.520;9.954;2023-01-10T12:29:18;44.24;41.14;59.30;;
11999;Laerm;40817;51.520;9.954;2023-01-10T12:31:49;44.22;41.38;55.93;;
11999;Laerm;40817;51.520;9.954;2023-01-10T12:34:22;44.77;41.96;56.19;;
11999;Laerm;40817;51.520;9.954;2023-01-10T12:37:00;44.54;41.30;67.40;;
11999;Laerm;40817;51.520;9.954;2023-01-10T12:39:37;44.45;41.75;56.70;;
11999;Laerm;40817;51.520;9.954;2023-01-10T12:42:28;44.48;41.14;66.24;;
11999;Laerm;40817;51.520;9.954;2023-01-10T12:45:20;43.99;40.62;54.16;;
11999;Laerm;40817;51.520;9.954;2023-01-10T12:47:59;45.77;41.53;64.97;;
11999;Laerm;40817;51.520;9.954;2023-01-10T12:50:33;44.23;41.14;62.85;;
11999;Laerm;40817;51.520;9.954;2023-01-10T12:53:10;43.93;41.26;55.10;;
11999;Laerm;40817;51.520;9.954;2023-01-10T12:55:43;44.40;41.26;57.74;;
11999;Laerm;40817;51.520;9.954;2023-01-10T12:58:19;44.41;41.22;60.56;;
11999;Laerm;40817;51.520;9.954;2023-01-10T13:00:51;43.98;41.53;57.43;;
11999;Laerm;40817;51.520;9.954;2023-01-10T13:03:23;44.22;40.23;54.16;;
11999;Laerm;40817;51.520;9.954;2023-01-10T13:05:53;43.95;41.38;48.21;;
11999;Laerm;40817;51.520;9.954;2023-01-10T13:08:26;43.85;41.38;50.56;;
11999;Laerm;40817;51.520;9.954;2023-01-10T13:10:57;43.97;40.62;53.32;;
11999;Laerm;40817;51.520;9.954;2023-01-10T13:13:33;44.15;41.14;53.43;;
11999;Laerm;40817;51.520;9.954;2023-01-10T13:16:21;44.85;41.38;56.37;;
11999;Laerm;40817;51.520;9.954;2023-01-10T13:19:23;44.19;41.22;55.32;;
11999;Laerm;40817;51.520;9.954;2023-01-10T13:22:18;43.98;41.46;52.90;;
11999;Laerm;40817;51.520;9.954;2023-01-10T13:25:04;44.28;40.33;55.03;;
11999;Laerm;40817;51.520;9.954;2023-01-10T13:27:34;44.03;41.22;53.23;;
11999;Laerm;40817;51.520;9.954;2023-01-10T13:30:04;45.08;41.06;54.22;;
11999;Laerm;40817;51.520;9.954;2023-01-10T13:32:34;44.28;41.38;50.93;;
11999;Laerm;40817;51.520;9.954;2023-01-10T13:35:14;44.21;39.46;54.99;;
11999;Laerm;40817;51.520;9.954;2023-01-10T13:37:49;43.97;41.38;58.51;;
11999;Laerm;40817;51.520;9.954;2023-01-10T13:40:21;44.19;41.14;56.64;;
11999;Laerm;40817;51.520;9.954;2023-01-10T13:44:02;45.41;40.80;72.73;;
11999;Laerm;40817;51.520;9.954;2023-01-10T13:46:51;45.03;41.38;59.36;;
11999;Laerm;40817;51.520;9.954;2023-01-10T13:49:42;44.45;41.14;66.40;;
11999;Laerm;40817;51.520;9.954;2023-01-10T13:52:37;44.50;40.53;56.25;;
11999;Laerm;40817;51.520;9.954;2023-01-10T13:55:28;44.07;41.53;56.42;;
11999;Laerm;40817;51.520;9.954;2023-01-10T13:58:03;44.77;41.68;63.23;;
11999;Laerm;40817;51.520;9.954;2023-01-10T14:00:50;44.37;40.89;61.77;;
11999;Laerm;40817;51.520;9.954;2023-01-10T14:03:51;44.53;41.96;60.21;;
11999;Laerm;40817;51.520;9.954;2023-01-10T14:06:34;44.23;41.53;53.98;;
11999;Laerm;40817;51.520;9.954;2023-01-10T14:09:39;44.35;40.89;53.92;;
11999;Laerm;40817;51.520;9.954;2023-01-10T14:12:25;44.27;41.96;54.36;;
11999;Laerm;40817;51.520;9.954;2023-01-10T14:14:59;44.65;41.46;59.47;;
11999;Laerm;40817;51.520;9.954;2023-01-10T14:17:31;45.05;41.14;55.21;;
11999;Laerm;40817;51.520;9.954;2023-01-10T14:20:15;46.53;41.96;60.94;;
11999;Laerm;40817;51.520;9.954;2023-01-10T14:23:02;44.25;41.38;49.96;;
11999;Laerm;40817;51.520;9.954;2023-01-10T14:25:33;44.37;40.23;51.36;;